createdAt,value
2022-10-22T00:00:44.895Z,13.86
2022-10-22T00:03:11.323Z,13.89
2022-10-22T00:05:37.795Z,13.86
2022-10-22T00:08:04.201Z,13.89
2022-10-22T00:10:30.614Z,13.89
2022-10-22T00:12:57.012Z,13.88
2022-10-22T00:15:23.560Z,13.89
2022-10-22T00:17:49.890Z,13.88
2022-10-22T00:20:16.238Z,13.90
2022-10-22T00:22:42.601Z,13.89
2022-10-22T00:25:09.008Z,13.89
2022-10-22T00:27:35.340Z,13.93
2022-10-22T00:30:01.687Z,13.92
2022-10-22T00:32:28.023Z,13.91
2022-10-22T00:34:54.391Z,13.91
2022-10-22T00:37:21.169Z,13.93
2022-10-22T00:39:47.568Z,13.95
2022-10-22T00:42:21.247Z,13.96
2022-10-22T00:45:02.937Z,13.94
2022-10-22T00:47:37.178Z,13.92
2022-10-22T00:50:07.960Z,13.85
2022-10-22T00:52:34.967Z,13.86
2022-10-22T00:55:01.909Z,13.90
2022-10-22T00:57:28.837Z,13.91
2022-10-22T00:59:57.016Z,13.91
2022-10-22T01:02:23.984Z,13.89
2022-10-22T01:04:50.322Z,13.88
2022-10-22T01:07:20.021Z,13.90
2022-10-22T01:09:52.217Z,13.91
2022-10-22T01:12:28.186Z,13.94
2022-10-22T01:15:16.895Z,13.87
2022-10-22T01:17:55.636Z,13.92
2022-10-22T01:20:40.326Z,13.94
2022-10-22T01:23:33.296Z,13.96
2022-10-22T01:26:21.238Z,13.93
2022-10-22T01:29:25.394Z,13.99
2022-10-22T01:31:57.633Z,13.96
2022-10-22T01:34:25.777Z,13.97
2022-10-22T01:36:53.281Z,13.96
2022-10-22T01:39:21.347Z,13.95
2022-10-22T01:41:47.770Z,14.00
2022-10-22T01:44:32.222Z,13.99
2022-10-22T01:47:14.038Z,13.98
2022-10-22T01:50:10.684Z,13.96
2022-10-22T01:52:49.957Z,14.01
2022-10-22T01:55:28.197Z,13.96
2022-10-22T01:58:18.903Z,13.85
2022-10-22T02:00:53.392Z,13.85
2022-10-22T02:03:29.076Z,13.82
2022-10-22T02:05:59.445Z,13.84
2022-10-22T02:08:32.061Z,13.86
2022-10-22T02:11:00.811Z,13.93
2022-10-22T02:13:42.707Z,13.95
2022-10-22T02:16:13.578Z,13.97
2022-10-22T02:18:42.885Z,13.99
2022-10-22T02:21:09.544Z,13.96
2022-10-22T02:23:36.380Z,13.91
2022-10-22T02:26:09.362Z,13.86
2022-10-22T02:28:56.449Z,13.82
2022-10-22T02:31:27.420Z,13.76
2022-10-22T02:33:57.980Z,13.69
2022-10-22T02:36:25.361Z,13.55
2022-10-22T02:38:52.422Z,13.44
2022-10-22T02:41:19.858Z,13.39
2022-10-22T02:43:53.456Z,13.34
2022-10-22T02:46:20.161Z,13.31
2022-10-22T02:48:46.648Z,13.21
2022-10-22T02:51:13.247Z,13.20
2022-10-22T02:53:39.584Z,13.11
2022-10-22T02:56:06.352Z,13.06
2022-10-22T02:58:32.692Z,13.02
2022-10-22T03:00:59.114Z,12.96
2022-10-22T03:03:25.459Z,12.89
2022-10-22T03:05:51.847Z,12.84
2022-10-22T03:08:19.741Z,12.76
2022-10-22T03:10:46.098Z,12.74
2022-10-22T03:13:12.804Z,12.71
2022-10-22T03:15:39.158Z,12.73
2022-10-22T03:18:05.567Z,12.74
2022-10-22T03:20:31.915Z,12.66
2022-10-22T03:22:58.452Z,12.68
2022-10-22T03:25:27.632Z,12.65
2022-10-22T03:28:01.264Z,12.56
2022-10-22T03:30:27.668Z,12.54
2022-10-22T03:32:54.028Z,12.54
2022-10-22T03:35:20.570Z,12.48
2022-10-22T03:37:46.978Z,12.45
2022-10-22T03:40:14.085Z,12.50
2022-10-22T03:42:42.248Z,12.44
2022-10-22T03:45:09.372Z,12.46
2022-10-22T03:47:37.190Z,12.32
2022-10-22T03:50:05.895Z,12.16
2022-10-22T03:52:37.571Z,12.13
2022-10-22T03:55:04.571Z,12.25
2022-10-22T03:57:30.997Z,12.30
2022-10-22T03:59:57.359Z,12.32
2022-10-22T04:02:23.690Z,12.28
2022-10-22T04:04:50.034Z,12.25
2022-10-22T04:07:16.406Z,12.28
2022-10-22T04:09:42.741Z,12.37
2022-10-22T04:12:09.491Z,12.43
2022-10-22T04:14:35.847Z,12.32
2022-10-22T04:17:02.173Z,12.29
2022-10-22T04:19:28.520Z,12.39
2022-10-22T04:21:57.249Z,12.44
2022-10-22T04:24:23.548Z,12.49
2022-10-22T04:26:49.920Z,12.47
2022-10-22T04:29:16.587Z,12.50
2022-10-22T04:31:43.219Z,12.53
2022-10-22T04:34:09.585Z,12.51
2022-10-22T04:36:36.024Z,12.47
2022-10-22T04:39:03.780Z,12.49
2022-10-22T04:41:33.066Z,12.52
2022-10-22T04:44:00.503Z,12.48
2022-10-22T04:46:30.746Z,12.51
2022-10-22T04:48:57.180Z,12.52
2022-10-22T04:51:25.722Z,12.54
2022-10-22T04:53:52.262Z,12.53
2022-10-22T04:56:30.140Z,12.53
2022-10-22T04:58:59.739Z,12.54
2022-10-22T05:01:31.754Z,12.47
2022-10-22T05:04:00.659Z,12.47
2022-10-22T05:06:27.994Z,12.50
2022-10-22T05:08:56.620Z,12.51
2022-10-22T05:11:27.723Z,12.54
2022-10-22T05:13:56.880Z,12.48
2022-10-22T05:16:24.321Z,12.45
2022-10-22T05:18:50.715Z,12.43
2022-10-22T05:21:19.368Z,12.34
2022-10-22T05:23:49.151Z,12.28
2022-10-22T05:26:18.485Z,12.20
2022-10-22T05:28:45.344Z,12.18
2022-10-22T05:31:12.970Z,12.12
2022-10-22T05:33:39.923Z,12.18
2022-10-22T05:36:08.325Z,12.11
2022-10-22T05:38:35.191Z,12.08
2022-10-22T05:41:06.054Z,12.03
2022-10-22T05:43:32.905Z,12.03
2022-10-22T05:46:08.350Z,12.02
2022-10-22T05:48:35.639Z,12.00
2022-10-22T05:51:10.465Z,11.98
2022-10-22T05:53:38.926Z,11.99
2022-10-22T05:56:08.457Z,11.98
2022-10-22T05:58:36.084Z,11.96
2022-10-22T06:01:17.414Z,11.95
2022-10-22T06:03:45.056Z,12.02
2022-10-22T06:06:22.542Z,12.01
2022-10-22T06:08:50.610Z,11.94
2022-10-22T06:11:18.650Z,11.99
2022-10-22T06:13:46.061Z,11.96
2022-10-22T06:16:12.992Z,11.99
2022-10-22T06:18:39.415Z,12.06
2022-10-22T06:21:07.946Z,12.06
2022-10-22T06:23:34.577Z,12.08
2022-10-22T06:26:01.700Z,12.08
2022-10-22T06:28:28.668Z,12.11
2022-10-22T06:30:56.834Z,12.11
2022-10-22T06:33:23.335Z,12.13
2022-10-22T06:35:49.863Z,12.09
2022-10-22T06:38:16.609Z,12.08
2022-10-22T06:40:45.859Z,12.11
2022-10-22T06:43:13.133Z,12.09
2022-10-22T06:45:39.847Z,12.09
2022-10-22T06:48:06.763Z,12.15
2022-10-22T06:50:36.223Z,12.18
2022-10-22T06:53:02.626Z,12.19
2022-10-22T06:55:29.006Z,12.17
2022-10-22T06:57:55.714Z,12.16
2022-10-22T07:00:22.279Z,12.13
2022-10-22T07:02:59.027Z,12.13
2022-10-22T07:05:26.293Z,12.18
2022-10-22T07:07:52.725Z,12.23
2022-10-22T07:10:19.043Z,12.31
2022-10-22T07:12:45.646Z,12.30
2022-10-22T07:15:12.142Z,12.25
2022-10-22T07:20:10.365Z,12.28
2022-10-22T07:22:36.743Z,12.32
2022-10-22T07:25:06.534Z,12.34
2022-10-22T07:27:34.156Z,12.29
2022-10-22T07:30:01.341Z,12.26
2022-10-22T07:32:28.041Z,12.38
2022-10-22T07:34:54.455Z,12.39
2022-10-22T07:37:21.955Z,12.44
2022-10-22T07:39:49.095Z,12.42
2022-10-22T07:42:16.202Z,12.46
2022-10-22T07:44:42.518Z,12.53
2022-10-22T07:47:08.898Z,12.54
2022-10-22T07:49:35.245Z,12.61
2022-10-22T07:52:01.742Z,12.57
2022-10-22T07:54:28.155Z,12.63
2022-10-22T07:56:54.540Z,12.66
2022-10-22T07:59:20.937Z,12.71
2022-10-22T08:01:47.416Z,12.71
2022-10-22T08:04:13.814Z,12.69
2022-10-22T08:06:42.481Z,12.66
2022-10-22T08:09:10.820Z,12.70
2022-10-22T08:11:39.029Z,12.73
2022-10-22T08:14:05.445Z,12.73
2022-10-22T08:16:31.747Z,12.79
2022-10-22T08:18:58.214Z,12.78
2022-10-22T08:21:24.649Z,12.78
2022-10-22T08:23:51.033Z,12.82
2022-10-22T08:26:18.126Z,12.83
2022-10-22T08:28:44.525Z,12.91
2022-10-22T08:31:11.042Z,12.94
2022-10-22T08:33:38.689Z,12.95
2022-10-22T08:36:06.093Z,13.02
2022-10-22T08:38:32.511Z,12.97
2022-10-22T08:41:09.272Z,13.00
2022-10-22T08:43:49.969Z,12.97
2022-10-22T08:46:39.872Z,12.97
2022-10-22T08:49:24.837Z,13.04
2022-10-22T08:51:51.227Z,13.17
2022-10-22T08:54:55.242Z,13.26
2022-10-22T08:57:40.517Z,13.35
2022-10-22T09:00:30.337Z,13.43
2022-10-22T09:03:15.035Z,13.47
2022-10-22T09:06:20.708Z,13.46
2022-10-22T09:08:47.703Z,13.56
2022-10-22T09:11:38.557Z,13.64
2022-10-22T09:14:05.412Z,13.57
2022-10-22T09:17:09.457Z,13.67
2022-10-22T09:19:56.530Z,13.75
2022-10-22T09:22:25.604Z,13.88
2022-10-22T09:25:16.217Z,13.87
2022-10-22T09:27:42.885Z,13.97
2022-10-22T09:30:19.940Z,14.05
2022-10-22T09:32:46.906Z,14.19
2022-10-22T09:35:14.993Z,14.22
2022-10-22T09:37:50.778Z,14.19
2022-10-22T09:40:18.089Z,14.19
2022-10-22T09:42:46.294Z,14.25
2022-10-22T09:45:25.007Z,14.33
2022-10-22T09:48:10.338Z,14.53
2022-10-22T09:50:48.569Z,14.60
2022-10-22T09:53:22.296Z,14.63
2022-10-22T09:58:26.984Z,14.86
2022-10-22T10:00:57.030Z,14.81
2022-10-22T10:03:26.979Z,14.99
2022-10-22T10:06:00.164Z,15.15
2022-10-22T10:08:29.729Z,15.19
2022-10-22T10:11:28.078Z,15.20
2022-10-22T10:14:04.735Z,15.32
2022-10-22T10:16:37.237Z,15.39
2022-10-22T10:19:48.702Z,15.68
2022-10-22T10:22:45.650Z,15.79
2022-10-22T10:25:11.879Z,15.83
2022-10-22T10:27:42.968Z,15.89
2022-10-22T10:30:23.823Z,15.73
2022-10-22T10:33:00.479Z,15.83
2022-10-22T10:35:30.442Z,15.94
2022-10-22T10:38:15.561Z,15.93
2022-10-22T10:40:50.318Z,15.85
2022-10-22T10:43:51.173Z,15.98
2022-10-22T10:46:31.136Z,16.08
2022-10-22T10:49:03.679Z,16.00
2022-10-22T10:51:38.113Z,16.16
2022-10-22T10:54:07.322Z,16.29
2022-10-22T10:56:57.778Z,16.38
2022-10-22T10:59:29.884Z,16.55
2022-10-22T11:02:16.925Z,16.61
2022-10-22T11:05:02.022Z,16.71
2022-10-22T11:07:39.027Z,16.77
2022-10-22T11:10:27.544Z,16.83
2022-10-22T11:13:02.053Z,16.92
2022-10-22T11:15:33.100Z,16.81
2022-10-22T11:18:12.968Z,16.94
2022-10-22T11:20:50.729Z,17.02
2022-10-22T11:23:25.656Z,17.02
2022-10-22T11:25:52.240Z,17.14
2022-10-22T11:28:24.695Z,17.27
2022-10-22T11:31:03.842Z,17.45
2022-10-22T11:33:43.561Z,17.35
2022-10-22T11:36:11.981Z,17.41
2022-10-22T11:38:38.829Z,17.36
2022-10-22T11:41:17.620Z,17.52
2022-10-22T11:43:59.390Z,17.65
2022-10-22T11:46:33.888Z,17.60
2022-10-22T11:49:09.275Z,17.79
2022-10-22T11:51:38.050Z,17.86
2022-10-22T11:54:37.178Z,17.90
2022-10-22T11:57:15.587Z,17.96
2022-10-22T11:59:47.821Z,18.07
2022-10-22T12:02:31.427Z,18.02
2022-10-22T12:05:17.384Z,17.98
2022-10-22T12:07:59.910Z,18.10
2022-10-22T12:10:29.322Z,17.91
2022-10-22T12:12:57.879Z,17.96
2022-10-22T12:15:27.536Z,17.93
2022-10-22T12:18:02.256Z,17.92
2022-10-22T12:20:29.759Z,18.01
2022-10-22T12:22:58.699Z,17.91
2022-10-22T12:25:34.736Z,17.97
2022-10-22T12:28:02.589Z,17.86
2022-10-22T12:30:35.555Z,17.99
2022-10-22T12:33:05.990Z,18.01
2022-10-22T12:35:37.880Z,17.96
2022-10-22T12:38:12.834Z,18.05
2022-10-22T12:40:45.802Z,17.96
2022-10-22T12:43:24.724Z,17.91
2022-10-22T12:45:52.579Z,18.02
2022-10-22T12:48:26.759Z,18.02
2022-10-22T12:50:55.900Z,17.94
2022-10-22T12:53:32.269Z,17.99
2022-10-22T12:56:10.955Z,18.00
2022-10-22T12:58:40.997Z,17.96
2022-10-22T13:01:10.549Z,17.80
2022-10-22T13:03:41.671Z,17.79
2022-10-22T13:06:20.240Z,17.65
2022-10-22T13:09:01.890Z,17.67
2022-10-22T13:11:37.397Z,17.45
2022-10-22T13:14:18.788Z,17.51
2022-10-22T13:17:08.296Z,17.47
2022-10-22T13:19:43.870Z,17.41
2022-10-22T13:22:31.442Z,17.54
2022-10-22T13:25:17.020Z,17.54
2022-10-22T13:27:45.197Z,17.47
2022-10-22T13:30:20.125Z,17.44
2022-10-22T13:32:51.825Z,17.43
2022-10-22T13:35:23.163Z,17.39
2022-10-22T13:37:49.621Z,17.49
2022-10-22T13:40:16.254Z,17.51
2022-10-22T13:42:42.934Z,17.45
2022-10-22T13:45:09.534Z,17.48
2022-10-22T13:47:35.938Z,17.50
2022-10-22T13:50:07.280Z,17.45
2022-10-22T13:52:33.516Z,17.33
2022-10-22T13:54:59.975Z,17.35
2022-10-22T13:57:26.283Z,17.40
2022-10-22T13:59:52.760Z,17.37
2022-10-22T14:02:19.853Z,17.40
2022-10-22T14:04:46.510Z,17.53
2022-10-22T14:07:15.545Z,17.64
2022-10-22T14:09:43.283Z,17.76
2022-10-22T14:12:15.293Z,17.88
2022-10-22T14:14:42.010Z,17.81
2022-10-22T14:17:16.563Z,17.77
2022-10-22T14:19:48.503Z,17.64
2022-10-22T14:22:18.857Z,17.41
2022-10-22T14:24:46.336Z,17.35
2022-10-22T14:27:14.972Z,17.21
2022-10-22T14:29:41.708Z,17.20
2022-10-22T14:32:16.772Z,17.27
2022-10-22T14:34:43.275Z,17.05
2022-10-22T14:37:20.344Z,16.88
2022-10-22T14:39:51.689Z,16.95
2022-10-22T14:42:19.547Z,16.98
2022-10-22T14:44:46.614Z,16.91
2022-10-22T14:47:12.955Z,16.91
2022-10-22T14:49:39.394Z,16.94
2022-10-22T14:52:05.836Z,17.00
2022-10-22T14:54:33.085Z,17.07
2022-10-22T14:56:59.386Z,17.11
2022-10-22T14:59:25.784Z,17.08
2022-10-22T15:01:52.285Z,17.07
2022-10-22T15:04:18.819Z,17.06
2022-10-22T15:06:45.298Z,17.14
2022-10-22T15:09:11.758Z,17.10
2022-10-22T15:11:38.195Z,17.05
2022-10-22T15:14:04.888Z,16.95
2022-10-22T15:16:31.327Z,16.97
2022-10-22T15:18:59.641Z,16.95
2022-10-22T15:21:25.942Z,16.87
2022-10-22T15:23:52.315Z,16.81
2022-10-22T15:26:18.689Z,16.76
2022-10-22T15:28:46.140Z,16.75
2022-10-22T15:31:14.195Z,16.80
2022-10-22T15:33:41.738Z,16.83
2022-10-22T15:36:16.391Z,16.85
2022-10-22T15:38:42.787Z,16.78
2022-10-22T15:41:12.438Z,16.68
2022-10-22T15:43:38.907Z,16.63
2022-10-22T15:46:10.506Z,16.47
2022-10-22T15:48:36.856Z,16.49
2022-10-22T15:51:09.306Z,16.49
2022-10-22T15:53:35.748Z,16.37
2022-10-22T15:56:02.036Z,16.33
2022-10-22T15:58:28.438Z,16.28
2022-10-22T16:00:54.778Z,16.28
2022-10-22T16:03:21.199Z,16.27
2022-10-22T16:05:54.309Z,16.25
2022-10-22T16:08:21.213Z,16.22
2022-10-22T16:10:48.456Z,16.14
2022-10-22T16:13:15.226Z,16.09
2022-10-22T16:15:41.935Z,16.12
2022-10-22T16:18:08.347Z,16.02
2022-10-22T16:20:39.402Z,15.93
2022-10-22T16:23:05.971Z,16.00
2022-10-22T16:25:39.065Z,15.98
2022-10-22T16:28:05.693Z,15.89
2022-10-22T16:30:36.246Z,15.76
2022-10-22T16:33:03.907Z,15.69
2022-10-22T16:35:30.755Z,15.69
2022-10-22T16:37:57.629Z,15.61
2022-10-22T16:40:24.045Z,15.55
2022-10-22T16:42:50.689Z,15.56
2022-10-22T16:45:18.047Z,15.56
2022-10-22T16:47:46.833Z,15.51
2022-10-22T16:50:13.240Z,15.42
2022-10-22T16:52:39.593Z,15.44
2022-10-22T16:55:06.237Z,15.39
2022-10-22T16:57:33.824Z,15.44
2022-10-22T17:00:00.176Z,15.40
2022-10-22T17:02:26.470Z,15.35
2022-10-22T17:04:52.831Z,15.44
2022-10-22T17:07:19.196Z,15.46
2022-10-22T17:09:45.517Z,15.35
2022-10-22T17:12:11.804Z,15.31
2022-10-22T17:14:38.108Z,15.34
2022-10-22T17:17:04.445Z,15.31
2022-10-22T17:19:30.777Z,15.19
2022-10-22T17:21:57.161Z,15.20
2022-10-22T17:24:23.450Z,15.14
2022-10-22T17:26:49.774Z,15.16
2022-10-22T17:29:16.886Z,15.07
2022-10-22T17:31:43.225Z,15.00
2022-10-22T17:34:14.663Z,15.04
2022-10-22T17:36:41.055Z,15.06
2022-10-22T17:39:07.936Z,15.08
2022-10-22T17:41:36.529Z,14.98
2022-10-22T17:44:05.189Z,14.90
2022-10-22T17:46:32.200Z,14.86
2022-10-22T17:49:01.603Z,14.70
2022-10-22T17:51:29.796Z,14.66
2022-10-22T17:53:56.674Z,14.59
2022-10-22T17:56:26.296Z,14.52
2022-10-22T17:58:53.286Z,14.48
2022-10-22T18:01:22.682Z,14.39
2022-10-22T18:03:49.480Z,14.35
2022-10-22T18:06:15.925Z,14.29
2022-10-22T18:08:42.510Z,14.23
2022-10-22T18:11:11.063Z,14.13
2022-10-22T18:13:37.947Z,14.19
2022-10-22T18:16:04.978Z,14.13
2022-10-22T18:18:31.920Z,14.15
2022-10-22T18:20:58.419Z,14.17
2022-10-22T18:23:24.720Z,14.12
2022-10-22T18:25:51.035Z,14.14
2022-10-22T18:28:19.059Z,14.12
2022-10-22T18:30:47.036Z,14.04
2022-10-22T18:33:15.369Z,13.99
2022-10-22T18:35:42.009Z,13.96
2022-10-22T18:38:09.353Z,13.91
2022-10-22T18:40:36.569Z,13.88
2022-10-22T18:43:03.208Z,13.81
2022-10-22T18:45:29.674Z,13.78
2022-10-22T18:47:55.995Z,13.78
2022-10-22T18:50:22.376Z,13.76
2022-10-22T18:52:48.782Z,13.74
2022-10-22T18:55:15.167Z,13.72
2022-10-22T18:57:41.468Z,13.74
2022-10-22T19:00:08.458Z,13.77
2022-10-22T19:02:34.740Z,13.76
2022-10-22T19:05:01.058Z,13.75
2022-10-22T19:07:27.345Z,13.73
2022-10-22T19:09:53.655Z,13.73
2022-10-22T19:12:21.481Z,13.75
2022-10-22T19:14:48.749Z,13.70
2022-10-22T19:17:15.349Z,13.73
2022-10-22T19:19:41.628Z,13.72
2022-10-22T19:22:07.985Z,13.66
2022-10-22T19:24:34.591Z,13.66
2022-10-22T19:27:00.963Z,13.54
2022-10-22T19:29:27.834Z,13.50
2022-10-22T19:31:54.272Z,13.58
2022-10-22T19:34:21.146Z,13.47
2022-10-22T19:36:47.575Z,13.43
2022-10-22T19:39:17.669Z,13.30
2022-10-22T19:41:45.193Z,13.30
2022-10-22T19:44:11.607Z,13.42
2022-10-22T19:46:38.042Z,13.43
2022-10-22T19:49:05.295Z,13.43
2022-10-22T19:51:33.699Z,13.45
2022-10-22T19:54:02.521Z,13.40
2022-10-22T19:56:29.995Z,13.33
2022-10-22T19:58:56.971Z,13.24
2022-10-22T20:01:24.464Z,13.28
2022-10-22T20:03:51.250Z,13.25
2022-10-22T20:06:17.774Z,13.23
2022-10-22T20:08:44.660Z,13.25
2022-10-22T20:11:16.981Z,13.22
2022-10-22T20:13:45.506Z,13.13
2022-10-22T20:16:18.514Z,13.14
2022-10-22T20:18:45.214Z,13.11
2022-10-22T20:21:18.824Z,13.16
2022-10-22T20:23:45.988Z,13.12
2022-10-22T20:26:12.846Z,13.05
2022-10-22T20:28:39.518Z,13.04
2022-10-22T20:31:11.088Z,13.06
2022-10-22T20:33:37.616Z,12.97
2022-10-22T20:36:07.319Z,13.02
2022-10-22T20:38:34.480Z,12.96
2022-10-22T20:41:10.339Z,12.95
2022-10-22T20:43:36.812Z,12.92
2022-10-22T20:46:04.167Z,12.94
2022-10-22T20:48:31.521Z,12.87
2022-10-22T20:50:58.958Z,12.84
2022-10-22T20:53:25.453Z,12.77
2022-10-22T20:55:54.758Z,12.71
2022-10-22T20:58:24.465Z,12.67
2022-10-22T21:00:54.022Z,12.71
2022-10-22T21:03:20.423Z,12.74
2022-10-22T21:05:46.848Z,12.74
2022-10-22T21:08:17.221Z,12.67
2022-10-22T21:10:46.234Z,12.60
2022-10-22T21:13:13.849Z,12.57
2022-10-22T21:15:40.526Z,12.57
2022-10-22T21:18:07.759Z,12.49
2022-10-22T21:20:34.484Z,12.43
2022-10-22T21:23:00.806Z,12.39
2022-10-22T21:25:27.095Z,12.37
2022-10-22T21:27:53.372Z,12.38
2022-10-22T21:30:19.710Z,12.33
2022-10-22T21:32:46.076Z,12.31
2022-10-22T21:35:12.424Z,12.18
2022-10-22T21:37:38.842Z,12.21
2022-10-22T21:40:05.838Z,12.18
2022-10-22T21:42:32.241Z,12.09
2022-10-22T21:44:58.551Z,12.08
2022-10-22T21:47:24.928Z,12.11
2022-10-22T21:49:51.292Z,12.06
2022-10-22T21:52:17.634Z,11.99
2022-10-22T21:54:43.994Z,11.89
2022-10-22T21:57:10.303Z,11.85
2022-10-22T21:59:36.760Z,11.86
2022-10-22T22:02:05.660Z,11.83
2022-10-22T22:04:32.954Z,11.82
2022-10-22T22:06:59.255Z,11.84
2022-10-22T22:09:25.590Z,11.81
2022-10-22T22:11:51.912Z,11.75
2022-10-22T22:14:18.252Z,11.71
2022-10-22T22:16:44.556Z,11.65
2022-10-22T22:19:10.995Z,11.64
2022-10-22T22:21:39.551Z,11.63
2022-10-22T22:24:06.894Z,11.60
2022-10-22T22:26:33.342Z,11.61
2022-10-22T22:29:00.275Z,11.55
2022-10-22T22:31:30.182Z,11.55
2022-10-22T22:34:08.464Z,11.43
2022-10-22T22:36:37.933Z,11.43
2022-10-22T22:39:06.277Z,11.41
2022-10-22T22:41:33.143Z,11.33
2022-10-22T22:43:59.880Z,11.28
2022-10-22T22:46:26.553Z,11.23
2022-10-22T22:48:52.941Z,11.22
2022-10-22T22:51:19.444Z,11.16
2022-10-22T22:53:46.151Z,11.15
2022-10-22T22:56:24.832Z,11.13
2022-10-22T22:58:51.369Z,11.13
2022-10-22T23:01:20.479Z,11.11
2022-10-22T23:03:52.611Z,11.07
2022-10-22T23:06:19.136Z,10.95
2022-10-22T23:08:49.263Z,10.94
2022-10-22T23:11:15.855Z,10.95
2022-10-22T23:13:43.022Z,10.99
2022-10-22T23:16:17.994Z,10.95
2022-10-22T23:18:46.423Z,10.83
2022-10-22T23:21:24.755Z,10.81
2022-10-22T23:23:54.615Z,10.83
2022-10-22T23:26:30.207Z,10.88
2022-10-22T23:29:12.164Z,10.89
2022-10-22T23:31:39.357Z,10.83
2022-10-22T23:34:07.265Z,10.87
2022-10-22T23:36:37.691Z,10.80
2022-10-22T23:39:10.498Z,10.84
2022-10-22T23:41:37.589Z,10.84
2022-10-22T23:44:04.720Z,10.88
2022-10-22T23:46:32.568Z,10.91
2022-10-22T23:48:59.799Z,11.00
2022-10-22T23:51:26.400Z,11.11
2022-10-22T23:53:58.639Z,11.04
2022-10-22T23:56:26.156Z,11.02
2022-10-22T23:58:53.072Z,10.97
